Time;durP1;ratioP1;P1;durP2;ratioP2;P2;SDS_P1;SDS_P2;PMS_P1;PMS_P2;Temp;Humidity;BMP_temperature;BMP_pressure;BME280_temperature;BME280_humidity;BME280_pressure;Samples;Min_cycle;Max_cycle;Signal;HPM_P1;HPM_P2
2024/04/13 00:02:18;;;;;;;;;;;;;;;11.16;100.00;96808.03;5439985;26;19928;-72
2024/04/13 00:04:45;;;;;;;;;;;;;;;11.16;100.00;96851.06;5439727;26;19928;-73
2024/04/13 00:07:13;;;;;;;;;;;;;;;11.12;100.00;96852.63;5439966;26;20059;-72
2024/04/13 00:09:40;;;;;;;;;;;;;;;11.10;100.00;96849.41;5438868;26;19935;-73
2024/04/13 00:12:07;;;;;;;;;;;;;;;11.12;100.00;96848.06;5439645;26;19928;-72
2024/04/13 00:14:35;;;;;;;;;;;;;;;11.13;100.00;96846.19;5440057;26;20375;-73
2024/04/13 00:17:02;;;;;;;;;;;;;;;11.12;100.00;96845.38;5438910;26;20627;-73
2024/04/13 00:19:30;;;;;;;;;;;;;;;11.09;100.00;96837.00;5438284;26;19962;-73
2024/04/13 00:22:00;;;;;;;;;;;;;;;11.11;100.00;96829.47;5439945;26;19928;-73
2024/04/13 00:24:27;;;;;;;;;;;;;;;11.14;100.00;96832.47;5439978;26;20243;-72
2024/04/13 00:26:55;;;;;;;;;;;;;;;11.11;100.00;96824.91;5439815;26;19938;-73
2024/04/13 00:29:22;;;;;;;;;;;;;;;11.12;100.00;96826.53;5406865;26;19996;-73
2024/04/13 00:31:49;;;;;;;;;;;;;;;11.11;100.00;96818.72;5440207;26;20551;-73
2024/04/13 00:34:17;;;;;;;;;;;;;;;11.11;100.00;96813.31;5439629;26;19935;-74
2024/04/13 00:36:46;;;;;;;;;;;;;;;11.10;100.00;96817.09;5439923;26;20285;-73
2024/04/13 00:39:13;;;;;;;;;;;;;;;11.09;100.00;96812.78;5439777;26;19935;-74
2024/04/13 00:41:41;;;;;;;;;;;;;;;11.07;100.00;96809.53;5439816;26;19929;-72
2024/04/13 00:44:09;;;;;;;;;;;;;;;11.03;100.00;96805.72;5437829;26;19934;-74
2024/04/13 00:46:39;;;;;;;;;;;;;;;11.00;100.00;96808.91;5439733;26;19928;-73
2024/04/13 00:49:13;;;;;;;;;;;;;;;11.00;100.00;96800.84;5439476;26;20393;-74
2024/04/13 00:51:44;;;;;;;;;;;;;;;10.97;100.00;96809.38;5438405;26;20293;-72
2024/04/13 00:54:14;;;;;;;;;;;;;;;10.94;100.00;96808.03;5438094;26;19935;-73
2024/04/13 00:56:42;;;;;;;;;;;;;;;10.90;100.00;96807.72;5438681;26;19932;-73
2024/04/13 00:59:10;;;;;;;;;;;;;;;10.83;100.00;96807.09;5439549;26;19928;-73
2024/04/13 01:01:37;;;;;;;;;;;;;;;10.69;100.00;96792.38;5437902;26;19928;-73
2024/04/13 01:04:05;;;;;;;;;;;;;;;10.60;100.00;96791.19;5439079;26;19928;-73
2024/04/13 01:06:33;;;;;;;;;;;;;;;10.60;100.00;96799.25;5439509;26;19932;-74
2024/04/13 01:09:00;;;;;;;;;;;;;;;10.59;100.00;96802.22;5439603;26;19934;-73
2024/04/13 01:11:29;;;;;;;;;;;;;;;10.47;100.00;96797.75;5439467;26;19935;-74
2024/04/13 01:13:57;;;;;;;;;;;;;;;10.41;100.00;96793.38;5439433;26;20285;-72
2024/04/13 01:16:27;;;;;;;;;;;;;;;10.42;100.00;96799.56;5436896;26;19939;-73
2024/04/13 01:18:55;;;;;;;;;;;;;;;10.41;100.00;96787.16;5439360;26;20393;-73
2024/04/13 01:21:23;;;;;;;;;;;;;;;10.37;100.00;96780.69;5439332;26;19928;-73
2024/04/13 01:23:53;;;;;;;;;;;;;;;10.38;100.00;96777.72;5439134;26;19928;-72
2024/04/13 01:26:20;;;;;;;;;;;;;;;10.42;100.00;96778.06;5437520;26;19929;-73
2024/04/13 01:28:48;;;;;;;;;;;;;;;10.42;100.00;96783.44;5438671;26;19928;-72
2024/04/13 01:31:15;;;;;;;;;;;;;;;10.44;100.00;96782.13;5438782;26;19929;-74
2024/04/13 01:33:43;;;;;;;;;;;;;;;10.44;100.00;96789.38;5439267;26;19928;-73
2024/04/13 01:36:10;;;;;;;;;;;;;;;10.37;100.00;96784.19;5435929;26;19934;-72
2024/04/13 01:38:37;;;;;;;;;;;;;;;10.24;100.00;96771.06;5438839;26;20353;-73
2024/04/13 01:41:04;;;;;;;;;;;;;;;10.08;100.00;96766.53;5438729;26;19929;-72
2024/04/13 01:43:32;;;;;;;;;;;;;;;10.00;100.00;96753.50;5438497;26;19952;-72
2024/04/13 01:46:00;;;;;;;;;;;;;;;10.05;100.00;96762.44;5438811;26;20461;-74
2024/04/13 01:48:27;;;;;;;;;;;;;;;10.10;100.00;96759.84;5438524;26;19928;-73
2024/04/13 01:50:54;;;;;;;;;;;;;;;10.14;100.00;96758.28;5438237;26;19935;-72
2024/04/13 01:53:21;;;;;;;;;;;;;;;10.17;100.00;96765.06;5438773;26;20382;-72
2024/04/13 01:55:49;;;;;;;;;;;;;;;10.19;100.00;96764.81;5404882;26;19935;-73
2024/04/13 01:58:16;;;;;;;;;;;;;;;10.21;100.00;96760.03;5438218;26;20380;-73
2024/04/13 02:00:43;;;;;;;;;;;;;;;10.25;100.00;96763.81;5406530;26;20281;-72
2024/04/13 02:03:11;;;;;;;;;;;;;;;10.25;100.00;96764.63;5436666;26;19929;-72
2024/04/13 02:05:42;;;;;;;;;;;;;;;10.26;100.00;96765.47;5438019;26;19928;-72
2024/04/13 02:08:09;;;;;;;;;;;;;;;10.26;100.00;96773.53;5393178;26;19929;-72
2024/04/13 02:10:37;;;;;;;;;;;;;;;10.25;100.00;96767.31;5406281;26;19929;-73
2024/04/13 02:13:06;;;;;;;;;;;;;;;10.25;100.00;96769.19;5437852;26;19935;-73
2024/04/13 02:15:33;;;;;;;;;;;;;;;10.25;100.00;96772.69;5438276;26;19928;-72
2024/04/13 02:18:00;;;;;;;;;;;;;;;10.22;100.00;96772.41;5438093;26;19952;-73
2024/04/13 02:20:28;;;;;;;;;;;;;;;10.19;100.00;96776.38;5437726;26;19928;-72
2024/04/13 02:22:56;;;;;;;;;;;;;;;10.16;100.00;96772.28;5438622;26;19928;-73
2024/04/13 02:25:23;;;;;;;;;;;;;;;10.16;100.00;96779.53;5438189;26;19935;-73
2024/04/13 02:27:50;;;;;;;;;;;;;;;10.15;100.00;96770.66;5438018;26;19928;-72
2024/04/13 02:30:18;;;;;;;;;;;;;;;10.13;100.00;96770.09;5437975;26;19928;-73
2024/04/13 02:32:45;;;;;;;;;;;;;;;10.12;100.00;96773.84;5437783;26;20310;-72
2024/04/13 02:35:12;;;;;;;;;;;;;;;10.11;100.00;96772.22;5437525;26;19938;-72
2024/04/13 02:37:40;;;;;;;;;;;;;;;10.09;100.00;96777.00;5436227;26;19929;-73
2024/04/13 02:40:08;;;;;;;;;;;;;;;10.07;100.00;96775.66;5437652;26;20369;-73
2024/04/13 02:42:36;;;;;;;;;;;;;;;10.06;100.00;96769.47;5435915;26;19935;-73
2024/04/13 02:45:05;;;;;;;;;;;;;;;10.06;100.00;96772.16;5437486;26;19928;-72
2024/04/13 02:47:33;;;;;;;;;;;;;;;10.05;100.00;96773.19;5436679;26;19935;-72
2024/04/13 02:50:00;;;;;;;;;;;;;;;10.05;100.00;96769.69;5437528;26;20532;-73
2024/04/13 02:52:31;;;;;;;;;;;;;;;10.04;100.00;96771.56;5437654;26;19929;-73
2024/04/13 02:58:02;;;;;;;;;;;;;;;10.02;100.00;96762.94;5511772;21;20271;-73
2024/04/13 03:00:29;;;;;;;;;;;;;;;10.01;100.00;96761.31;5349116;26;19930;-73
2024/04/13 03:02:57;;;;;;;;;;;;;;;9.94;100.00;96757.97;5350953;26;20386;-73
2024/04/13 03:05:24;;;;;;;;;;;;;;;9.89;100.00;96757.09;5350409;26;20527;-73
2024/04/13 03:07:51;;;;;;;;;;;;;;;9.86;100.00;96763.78;5352787;26;20968;-73
2024/04/13 03:10:19;;;;;;;;;;;;;;;9.81;100.00;96761.00;5350196;26;20352;-72
2024/04/13 03:12:46;;;;;;;;;;;;;;;9.70;100.00;96760.03;5346738;26;19930;-73
2024/04/13 03:15:13;;;;;;;;;;;;;;;9.61;100.00;96749.94;5350968;26;19936;-73
2024/04/13 03:17:41;;;;;;;;;;;;;;;9.53;100.00;96761.88;5352429;26;19936;-73
2024/04/13 03:20:08;;;;;;;;;;;;;;;9.46;100.00;96752.38;5350919;26;19930;-72
2024/04/13 03:22:36;;;;;;;;;;;;;;;9.39;100.00;96741.78;5349123;26;19940;-73
2024/04/13 03:25:05;;;;;;;;;;;;;;;9.39;100.00;96733.75;5349524;26;20267;-72
2024/04/13 03:27:33;;;;;;;;;;;;;;;9.40;100.00;96727.31;5351434;26;19936;-73
2024/04/13 03:30:00;;;;;;;;;;;;;;;9.48;100.00;96723.44;5353686;26;19930;-73
2024/04/13 03:32:28;;;;;;;;;;;;;;;9.54;100.00;96722.44;5354174;26;19946;-73
2024/04/13 03:34:55;;;;;;;;;;;;;;;9.60;100.00;96724.16;5324030;26;19929;-73
2024/04/13 03:37:22;;;;;;;;;;;;;;;9.61;100.00;96712.38;5355675;26;19936;-72
2024/04/13 03:39:49;;;;;;;;;;;;;;;9.62;100.00;96714.00;5351338;26;20217;-73
2024/04/13 03:42:17;;;;;;;;;;;;;;;9.57;100.00;96703.19;5352428;26;19940;-74
2024/04/13 03:44:44;;;;;;;;;;;;;;;9.54;100.00;96704.47;5352003;26;19946;-72
2024/04/13 03:47:11;;;;;;;;;;;;;;;9.51;100.00;96706.81;5336713;26;19930;-73
2024/04/13 03:49:39;;;;;;;;;;;;;;;9.47;100.00;96713.75;5355631;26;19930;-73
2024/04/13 03:52:06;;;;;;;;;;;;;;;9.45;100.00;96722.03;5357302;26;20264;-73
2024/04/13 03:54:34;;;;;;;;;;;;;;;9.45;100.00;96705.94;5351397;26;19931;-73
2024/04/13 03:57:02;;;;;;;;;;;;;;;9.44;100.00;96698.13;5325093;26;19929;-73
2024/04/13 03:59:29;;;;;;;;;;;;;;;9.48;100.00;96692.03;5351229;26;20346;-72
2024/04/13 04:02:00;;;;;;;;;;;;;;;9.51;100.00;96685.34;5353850;26;19930;-73
2024/04/13 04:04:30;;;;;;;;;;;;;;;9.49;100.00;96676.75;5353081;26;20103;-73
2024/04/13 04:06:58;;;;;;;;;;;;;;;9.47;100.00;96674.31;5354379;26;19937;-72
2024/04/13 04:09:25;;;;;;;;;;;;;;;9.44;100.00;96671.28;5322862;26;20352;-73
2024/04/13 04:11:53;;;;;;;;;;;;;;;9.43;100.00;96677.69;5353727;26;19930;-73
2024/04/13 04:14:21;;;;;;;;;;;;;;;9.42;100.00;96673.41;5353458;26;19930;-73
2024/04/13 04:16:48;;;;;;;;;;;;;;;9.36;100.00;96667.94;5356027;26;19929;-73
2024/04/13 04:19:15;;;;;;;;;;;;;;;9.35;100.00;96660.94;5353701;26;20270;-73
2024/04/13 04:21:43;;;;;;;;;;;;;;;9.33;100.00;96668.47;5348068;26;19936;-72
2024/04/13 04:24:10;;;;;;;;;;;;;;;9.27;100.00;96665.94;5354417;26;19940;-73
2024/04/13 04:26:38;;;;;;;;;;;;;;;9.24;100.00;96666.41;5352977;26;20300;-72
2024/04/13 04:29:05;;;;;;;;;;;;;;;9.24;100.00;96661.03;5351325;26;19930;-73
2024/04/13 04:31:32;;;;;;;;;;;;;;;9.27;100.00;96669.44;5356071;26;19934;-73
2024/04/13 04:34:00;;;;;;;;;;;;;;;9.22;100.00;96665.84;5348196;26;20515;-73
2024/04/13 04:36:27;;;;;;;;;;;;;;;9.19;100.00;96674.38;5352185;26;19936;-73
2024/04/13 04:38:55;;;;;;;;;;;;;;;9.21;100.00;96661.53;5352547;26;19929;-73
2024/04/13 04:41:22;;;;;;;;;;;;;;;9.16;100.00;96653.41;5354571;26;20331;-73
2024/04/13 04:43:49;;;;;;;;;;;;;;;9.08;100.00;96649.25;5351092;26;19936;-73
2024/04/13 04:46:17;;;;;;;;;;;;;;;9.08;100.00;96649.25;5350514;26;19930;-73
2024/04/13 04:48:46;;;;;;;;;;;;;;;9.11;100.00;96640.72;5352919;26;20280;-73
2024/04/13 04:51:14;;;;;;;;;;;;;;;9.13;100.00;96627.88;5324370;26;20373;-73
2024/04/13 04:53:41;;;;;;;;;;;;;;;9.17;100.00;96636.25;5350317;26;19930;-73
2024/04/13 04:56:09;;;;;;;;;;;;;;;9.19;100.00;96626.91;5348846;26;19930;-73
2024/04/13 04:58:36;;;;;;;;;;;;;;;9.20;100.00;96631.22;5351760;26;20364;-72
2024/04/13 05:01:04;;;;;;;;;;;;;;;9.25;100.00;96633.97;5354120;26;19931;-73
2024/04/13 05:03:31;;;;;;;;;;;;;;;9.30;100.00;96630.56;5351651;26;19936;-72
2024/04/13 05:05:59;;;;;;;;;;;;;;;9.30;100.00;96615.28;5350969;26;19930;-73
2024/04/13 05:08:26;;;;;;;;;;;;;;;9.25;100.00;96617.88;5350569;26;20463;-73
2024/04/13 05:10:53;;;;;;;;;;;;;;;9.25;100.00;96600.97;5351660;26;19936;-73
2024/04/13 05:13:21;;;;;;;;;;;;;;;9.24;100.00;96594.78;5348717;26;19930;-73
2024/04/13 05:15:48;;;;;;;;;;;;;;;9.29;100.00;96592.19;5355721;26;19937;-74
2024/04/13 05:18:15;;;;;;;;;;;;;;;9.34;100.00;96584.22;5349680;26;19930;-73
2024/04/13 05:20:45;;;;;;;;;;;;;;;9.43;100.00;96579.22;5349776;26;19930;-73
2024/04/13 05:23:12;;;;;;;;;;;;;;;9.52;100.00;96572.38;5351996;26;19930;-73
2024/04/13 05:25:42;;;;;;;;;;;;;;;9.60;100.00;96576.53;5348349;26;20376;-73
2024/04/13 05:28:10;;;;;;;;;;;;;;;9.66;100.00;96567.47;5353074;26;19963;-73
2024/04/13 05:30:38;;;;;;;;;;;;;;;9.73;100.00;96565.41;5348963;26;19929;-72
2024/04/13 05:33:06;;;;;;;;;;;;;;;9.80;100.00;96557.97;5351550;26;19929;-72
2024/04/13 05:35:34;;;;;;;;;;;;;;;9.86;100.00;96548.94;5349028;26;19930;-73
2024/04/13 05:38:01;;;;;;;;;;;;;;;9.93;100.00;96549.56;5352303;26;19930;-72
2024/04/13 05:40:28;;;;;;;;;;;;;;;9.99;100.00;96550.44;5352025;26;19936;-73
2024/04/13 05:42:56;;;;;;;;;;;;;;;10.06;100.00;96543.81;5351465;26;19930;-73
2024/04/13 05:45:23;;;;;;;;;;;;;;;10.18;100.00;96534.81;5353171;26;20477;-72
2024/04/13 05:47:50;;;;;;;;;;;;;;;10.26;100.00;96520.94;5348089;26;19937;-73
2024/04/13 05:50:17;;;;;;;;;;;;;;;10.39;100.00;96518.66;5352369;26;20271;-73
2024/04/13 05:52:45;;;;;;;;;;;;;;;10.52;100.00;96520.09;5350111;26;19964;-73
2024/04/13 05:55:12;;;;;;;;;;;;;;;10.58;100.00;96524.47;5348271;26;19930;-73
2024/04/13 05:57:39;;;;;;;;;;;;;;;10.67;100.00;96522.94;5350063;26;19940;-73
2024/04/13 06:00:09;;;;;;;;;;;;;;;10.95;100.00;96457.28;5351030;26;19935;-73
2024/04/13 06:02:36;;;;;;;;;;;;;;;11.26;100.00;96399.03;5352019;26;19941;-74
2024/04/13 06:05:04;;;;;;;;;;;;;;;11.52;100.00;96378.41;5351212;26;19933;-73
2024/04/13 06:07:32;;;;;;;;;;;;;;;11.74;100.00;96362.88;5350001;26;19930;-73
2024/04/13 06:09:59;;;;;;;;;;;;;;;12.02;100.00;96327.34;5351944;26;20368;-74
2024/04/13 06:12:26;;;;;;;;;;;;;;;12.29;100.00;96318.97;5353170;26;19930;-73
2024/04/13 06:14:54;;;;;;;;;;;;;;;12.58;100.00;96308.41;5351147;26;19929;-74
2024/04/13 06:17:21;;;;;;;;;;;;;;;12.80;100.00;96290.00;5349697;26;19929;-73
2024/04/13 06:19:48;;;;;;;;;;;;;;;12.99;100.00;96300.19;5351638;26;19936;-73
2024/04/13 06:22:20;;;;;;;;;;;;;;;13.03;100.00;96306.66;5350603;26;19937;-74
2024/04/13 06:24:47;;;;;;;;;;;;;;;13.13;100.00;96323.66;5353724;26;20279;-74
2024/04/13 06:27:14;;;;;;;;;;;;;;;13.24;100.00;96327.09;5349817;26;19930;-73
2024/04/13 06:29:46;;;;;;;;;;;;;;;13.44;100.00;96324.28;5348462;26;20265;-74
2024/04/13 06:32:13;;;;;;;;;;;;;;;13.60;100.00;96322.31;5346819;26;19936;-73
2024/04/13 06:34:41;;;;;;;;;;;;;;;13.68;100.00;96321.72;5349380;26;20474;-73
2024/04/13 06:37:08;;;;;;;;;;;;;;;13.76;100.00;96337.34;5351294;26;19936;-74
2024/04/13 06:39:35;;;;;;;;;;;;;;;13.89;100.00;96347.53;5346107;26;20571;-74
2024/04/13 06:42:03;;;;;;;;;;;;;;;13.98;100.00;96359.38;5353636;26;20522;-73
2024/04/13 06:44:30;;;;;;;;;;;;;;;14.11;100.00;96355.22;5353576;26;19929;-74
2024/04/13 06:46:57;;;;;;;;;;;;;;;14.25;100.00;96360.78;5354605;26;19930;-73
2024/04/13 06:49:24;;;;;;;;;;;;;;;14.36;100.00;96373.16;5351365;26;19930;-73
2024/04/13 06:51:52;;;;;;;;;;;;;;;14.67;100.00;96382.66;5349045;26;20514;-74
2024/04/13 06:54:19;;;;;;;;;;;;;;;14.94;100.00;96392.94;5350930;26;19936;-73
2024/04/13 06:56:46;;;;;;;;;;;;;;;15.19;100.00;96418.94;5348259;26;19929;-73
2024/04/13 06:59:14;;;;;;;;;;;;;;;15.46;100.00;96445.47;5348992;26;19930;-74
2024/04/13 07:01:41;;;;;;;;;;;;;;;16.27;100.00;96504.94;5347531;26;19930;-74
2024/04/13 07:04:08;;;;;;;;;;;;;;;17.00;100.00;96601.38;5332611;26;20268;-73
2024/04/13 07:06:38;;;;;;;;;;;;;;;18.32;100.00;96646.19;5350230;26;19930;-74
2024/04/13 07:09:06;;;;;;;;;;;;;;;19.17;100.00;96693.75;5352290;26;20316;-74
2024/04/13 07:11:33;;;;;;;;;;;;;;;19.22;100.00;96778.13;5347779;26;19936;-73
2024/04/13 07:14:00;;;;;;;;;;;;;;;18.73;100.00;96795.19;5346632;26;19930;-74
2024/04/13 07:16:28;;;;;;;;;;;;;;;17.83;100.00;96796.41;5350439;26;19929;-74
2024/04/13 07:18:55;;;;;;;;;;;;;;;16.79;100.00;96777.38;5349789;26;19935;-74
2024/04/13 07:21:22;;;;;;;;;;;;;;;16.45;100.00;96749.47;5350978;26;20458;-73
2024/04/13 07:23:50;;;;;;;;;;;;;;;16.38;100.00;96733.53;5348776;26;20278;-73
2024/04/13 07:26:18;;;;;;;;;;;;;;;16.61;100.00;96713.75;5347525;26;19941;-74
2024/04/13 07:28:45;;;;;;;;;;;;;;;16.59;100.00;96687.97;5349668;26;19929;-73
2024/04/13 07:31:12;;;;;;;;;;;;;;;16.81;100.00;96688.25;5353185;26;19930;-74
2024/04/13 07:33:39;;;;;;;;;;;;;;;16.70;100.00;96698.47;5352570;26;20178;-74
2024/04/13 07:36:07;;;;;;;;;;;;;;;16.82;100.00;96700.75;5345537;26;19930;-74
2024/04/13 07:38:34;;;;;;;;;;;;;;;17.12;100.00;96705.78;5351001;26;19930;-74
2024/04/13 07:41:02;;;;;;;;;;;;;;;17.08;100.00;96718.34;5350107;26;19964;-73
2024/04/13 07:43:30;;;;;;;;;;;;;;;17.19;100.00;96720.91;5350397;26;19962;-73
2024/04/13 07:45:57;;;;;;;;;;;;;;;17.45;100.00;96716.75;5348638;26;19936;-74
2024/04/13 07:48:25;;;;;;;;;;;;;;;17.49;100.00;96725.91;5345519;26;20281;-73
2024/04/13 07:50:52;;;;;;;;;;;;;;;17.59;100.00;96727.69;5349409;26;19934;-74
2024/04/13 07:53:19;;;;;;;;;;;;;;;17.61;100.00;96723.56;5349846;26;19932;-74
2024/04/13 07:55:48;;;;;;;;;;;;;;;17.71;100.00;96742.47;5350795;26;20275;-73
2024/04/13 07:58:15;;;;;;;;;;;;;;;17.76;100.00;96747.81;5348568;26;19930;-74
2024/04/13 08:00:43;;;;;;;;;;;;;;;17.93;100.00;96762.78;5347032;26;19933;-74
2024/04/13 08:03:10;;;;;;;;;;;;;;;17.93;100.00;96770.97;5347486;26;20479;-74
2024/04/13 08:05:37;;;;;;;;;;;;;;;17.94;100.00;96784.28;5349995;26;20620;-74
2024/04/13 08:08:05;;;;;;;;;;;;;;;18.27;100.00;96780.44;5351147;26;21346;-74
2024/04/13 08:10:36;;;;;;;;;;;;;;;18.33;100.00;96789.34;5344765;26;20363;-74
2024/04/13 08:13:03;;;;;;;;;;;;;;;18.40;100.00;96800.66;5324418;26;19938;-74
2024/04/13 08:15:30;;;;;;;;;;;;;;;18.59;100.00;96798.69;5348809;26;19940;-74
2024/04/13 08:17:58;;;;;;;;;;;;;;;19.05;100.00;96797.84;5354554;26;19930;-74
2024/04/13 08:20:25;;;;;;;;;;;;;;;19.17;100.00;96811.75;5357484;26;19930;-74
2024/04/13 08:22:52;;;;;;;;;;;;;;;18.98;100.00;96817.31;5349164;26;19939;-74
2024/04/13 08:25:19;;;;;;;;;;;;;;;19.06;100.00;96815.81;5353687;26;19937;-74
2024/04/13 08:27:47;;;;;;;;;;;;;;;19.05;100.00;96827.81;5353528;26;20654;-74
2024/04/13 08:30:14;;;;;;;;;;;;;;;18.97;100.00;96833.97;5351970;26;19964;-74
2024/04/13 08:32:45;;;;;;;;;;;;;;;19.08;100.00;96831.84;5351795;26;19930;-74
2024/04/13 08:35:12;;;;;;;;;;;;;;;19.04;100.00;96842.56;5351985;26;20482;-74
2024/04/13 08:37:39;;;;;;;;;;;;;;;19.07;100.00;96852.84;5352957;26;20271;-74
2024/04/13 08:40:13;;;;;;;;;;;;;;;18.73;100.00;96864.09;5354067;26;19933;-74
2024/04/13 08:42:40;;;;;;;;;;;;;;;19.17;100.00;96844.47;5354865;26;19930;-74
2024/04/13 08:45:09;;;;;;;;;;;;;;;19.12;100.00;96855.47;5347728;26;19929;-74
2024/04/13 08:47:36;;;;;;;;;;;;;;;19.17;100.00;96860.81;5349898;26;19936;-74
2024/04/13 08:50:04;;;;;;;;;;;;;;;19.31;100.00;96861.63;5353350;26;20460;-74
2024/04/13 08:52:33;;;;;;;;;;;;;;;18.82;100.00;96875.94;5351599;26;19936;-74
2024/04/13 08:55:00;;;;;;;;;;;;;;;19.51;100.00;96868.63;5354582;26;19957;-74
2024/04/13 08:57:29;;;;;;;;;;;;;;;19.82;100.00;96885.16;5350599;26;19930;-74
2024/04/13 09:00:00;;;;;;;;;;;;;;;20.10;100.00;96881.25;5353476;26;20372;-74
2024/04/13 09:02:30;;;;;;;;;;;;;;;19.78;100.00;96878.72;5349826;26;19936;-74
2024/04/13 09:04:58;;;;;;;;;;;;;;;20.27;100.00;96890.72;5336555;26;20348;-74
2024/04/13 09:07:25;;;;;;;;;;;;;;;20.01;100.00;96902.22;5349170;26;19936;-74
2024/04/13 09:09:55;;;;;;;;;;;;;;;20.06;100.00;96901.28;5349309;26;19930;-74
2024/04/13 09:12:24;;;;;;;;;;;;;;;20.69;100.00;96905.84;5350446;26;19930;-74
2024/04/13 09:14:53;;;;;;;;;;;;;;;21.15;100.00;96911.75;5352526;26;19934;-74
2024/04/13 09:17:20;;;;;;;;;;;;;;;21.37;100.00;96927.34;5350193;26;20406;-75
2024/04/13 09:19:48;;;;;;;;;;;;;;;21.48;100.00;96931.41;5348533;26;20099;-75
2024/04/13 09:22:16;;;;;;;;;;;;;;;21.04;100.00;96932.25;5347942;26;19929;-74
2024/04/13 09:24:44;;;;;;;;;;;;;;;21.04;100.00;96931.50;5351757;26;19930;-74
2024/04/13 09:27:17;;;;;;;;;;;;;;;20.96;100.00;96936.59;5351614;26;19930;-74
2024/04/13 09:29:45;;;;;;;;;;;;;;;21.06;100.00;96930.03;5349080;26;20578;-74
2024/04/13 09:32:26;;;;;;;;;;;;;;;21.16;100.00;96931.72;5350309;26;19936;-74
2024/04/13 09:34:54;;;;;;;;;;;;;;;21.11;100.00;96926.38;5351767;26;20013;-74
2024/04/13 09:37:21;;;;;;;;;;;;;;;21.15;100.00;96930.91;5350769;26;19934;-74
2024/04/13 09:39:59;;;;;;;;;;;;;;;21.46;100.00;96928.19;5353141;26;20267;-74
2024/04/13 09:42:27;;;;;;;;;;;;;;;21.62;100.00;96926.66;5351469;26;19945;-74
2024/04/13 09:45:01;;;;;;;;;;;;;;;21.21;100.00;96940.59;5320100;26;19930;-74
2024/04/13 09:47:31;;;;;;;;;;;;;;;21.19;100.00;96940.09;5351157;26;19936;-74
2024/04/13 09:49:59;;;;;;;;;;;;;;;21.08;100.00;96932.47;5351708;26;20339;-74
2024/04/13 09:52:27;;;;;;;;;;;;;;;21.24;100.00;96925.50;5349375;26;20383;-75
2024/04/13 09:54:58;;;;;;;;;;;;;;;21.41;100.00;96933.78;5351764;26;19930;-74
2024/04/13 09:57:26;;;;;;;;;;;;;;;21.13;100.00;96926.84;5351254;26;19937;-74
2024/04/13 09:59:54;;;;;;;;;;;;;;;21.56;100.00;96911.47;5350995;26;19937;-75
2024/04/13 10:02:21;;;;;;;;;;;;;;;21.73;100.00;96905.25;5352708;26;19930;-74
2024/04/13 10:04:49;;;;;;;;;;;;;;;21.53;100.00;96906.66;5346081;26;20320;-73
2024/04/13 10:07:16;;;;;;;;;;;;;;;21.98;100.00;96920.19;5349777;26;19937;-74
2024/04/13 10:09:47;;;;;;;;;;;;;;;21.74;100.00;96924.09;5350834;26;19930;-74
2024/04/13 10:12:19;;;;;;;;;;;;;;;21.68;100.00;96897.22;5351022;26;20379;-74
2024/04/13 10:14:48;;;;;;;;;;;;;;;21.74;100.00;96896.75;5349588;26;20305;-74
2024/04/13 10:17:15;;;;;;;;;;;;;;;21.56;100.00;96870.44;5348644;26;19929;-74
2024/04/13 10:19:44;;;;;;;;;;;;;;;21.67;100.00;96874.50;5348493;26;19929;-74
2024/04/13 10:22:12;;;;;;;;;;;;;;;21.96;100.00;96892.28;5350197;26;20286;-75
2024/04/13 10:25:01;;;;;;;;;;;;;;;22.08;100.00;96900.69;5354698;26;19929;-74
2024/04/13 10:27:31;;;;;;;;;;;;;;;22.26;100.00;96891.38;5349052;26;20605;-74
2024/04/13 10:29:59;;;;;;;;;;;;;;;22.43;100.00;96904.25;5351018;26;19945;-75
2024/04/13 10:32:26;;;;;;;;;;;;;;;22.31;100.00;96904.91;5351091;26;19938;-74
2024/04/13 10:34:58;;;;;;;;;;;;;;;22.29;100.00;96887.16;5352734;26;19940;-74
2024/04/13 10:37:26;;;;;;;;;;;;;;;22.14;100.00;96874.75;5351810;26;19939;-74
2024/04/13 10:39:55;;;;;;;;;;;;;;;22.28;100.00;96864.44;5345577;26;19937;-74
2024/04/13 10:42:35;;;;;;;;;;;;;;;22.34;100.00;96865.91;5351524;26;20364;-74
2024/04/13 10:45:13;;;;;;;;;;;;;;;22.35;100.00;96883.16;5350479;26;19930;-75
2024/04/13 10:47:41;;;;;;;;;;;;;;;22.36;100.00;96880.06;5349673;26;19930;-74
2024/04/13 10:50:10;;;;;;;;;;;;;;;22.53;100.00;96901.19;5348974;26;19936;-74
2024/04/13 10:52:37;;;;;;;;;;;;;;;21.96;100.00;96887.63;5349634;26;20278;-75
2024/04/13 10:55:05;;;;;;;;;;;;;;;22.11;100.00;96878.97;5327879;26;19930;-74
2024/04/13 10:57:32;;;;;;;;;;;;;;;22.38;100.00;96883.31;5350756;26;19929;-75
2024/04/13 10:59:59;;;;;;;;;;;;;;;22.29;100.00;96879.75;5352902;26;19964;-75
2024/04/13 11:02:27;;;;;;;;;;;;;;;22.40;100.00;96875.56;5350012;26;19936;-74
2024/04/13 11:04:55;;;;;;;;;;;;;;;22.44;100.00;96887.50;5348792;26;19936;-74
2024/04/13 11:07:22;;;;;;;;;;;;;;;22.38;100.00;96883.31;5349101;26;19930;-74
2024/04/13 11:09:50;;;;;;;;;;;;;;;22.39;100.00;96879.44;5350609;26;19936;-75
2024/04/13 11:12:17;;;;;;;;;;;;;;;22.51;100.00;96887.00;5350977;26;19929;-75
2024/04/13 11:14:46;;;;;;;;;;;;;;;22.57;100.00;96896.69;5344239;26;19939;-74
2024/04/13 11:17:14;;;;;;;;;;;;;;;22.75;100.00;96886.53;5350593;26;19929;-75
2024/04/13 11:19:42;;;;;;;;;;;;;;;22.63;100.00;96892.66;5351109;26;19929;-75
2024/04/13 11:22:10;;;;;;;;;;;;;;;22.84;100.00;96876.38;5351320;26;20364;-74
2024/04/13 11:24:38;;;;;;;;;;;;;;;22.98;100.00;96878.91;5349801;26;19930;-75
2024/04/13 11:27:05;;;;;;;;;;;;;;;22.96;100.00;96883.91;5349374;26;20480;-75
2024/04/13 11:29:33;;;;;;;;;;;;;;;22.89;100.00;96878.94;5351799;26;19930;-74
2024/04/13 11:32:01;;;;;;;;;;;;;;;22.43;100.00;96880.41;5348960;26;19937;-73
2024/04/13 11:34:29;;;;;;;;;;;;;;;22.56;100.00;96870.41;5350867;26;19930;-73
2024/04/13 11:37:00;;;;;;;;;;;;;;;22.36;100.00;96882.81;5347524;26;20261;-73
2024/04/13 11:39:27;;;;;;;;;;;;;;;22.26;100.00;96880.41;5350034;26;20265;-73
2024/04/13 11:41:55;;;;;;;;;;;;;;;22.46;100.00;96878.94;5349698;26;19930;-72
2024/04/13 11:44:23;;;;;;;;;;;;;;;22.43;100.00;96866.69;5352025;26;19964;-73
2024/04/13 11:46:51;;;;;;;;;;;;;;;22.86;100.00;96869.44;5351224;26;19930;-72
2024/04/13 11:49:18;;;;;;;;;;;;;;;22.69;100.00;96882.31;5351875;26;19936;-72
2024/04/13 11:51:45;;;;;;;;;;;;;;;22.88;100.00;96869.09;5358608;26;19930;-72
2024/04/13 11:54:13;;;;;;;;;;;;;;;22.64;100.00;96875.09;5354336;26;20087;-72
2024/04/13 11:56:43;;;;;;;;;;;;;;;22.45;100.00;96872.66;5359139;26;19929;-72
2024/04/13 11:59:14;;;;;;;;;;;;;;;22.36;100.00;96877.34;5324558;26;19936;-72
2024/04/13 12:01:41;;;;;;;;;;;;;;;22.56;100.00;96867.69;5351018;26;19937;-72
2024/04/13 12:04:09;;;;;;;;;;;;;;;22.64;100.00;96868.78;5352770;26;20275;-72
2024/04/13 12:06:36;;;;;;;;;;;;;;;22.58;100.00;96875.53;5353229;26;20064;-72
2024/04/13 12:09:04;;;;;;;;;;;;;;;22.53;100.00;96869.13;5352588;26;19930;-72
2024/04/13 12:11:32;;;;;;;;;;;;;;;22.71;100.00;96869.09;5352201;26;19937;-72
2024/04/13 12:13:59;;;;;;;;;;;;;;;22.84;100.00;96868.13;5351569;26;19936;-72
2024/04/13 12:16:26;;;;;;;;;;;;;;;22.66;100.00;96861.03;5352057;26;19930;-72
2024/04/13 12:18:54;;;;;;;;;;;;;;;22.62;100.00;96866.38;5353647;26;19930;-72
2024/04/13 12:21:21;;;;;;;;;;;;;;;22.82;100.00;96862.16;5353220;26;19929;-73
2024/04/13 12:23:48;;;;;;;;;;;;;;;22.82;100.00;96862.16;5352457;26;19936;-73
2024/04/13 12:26:16;;;;;;;;;;;;;;;22.69;100.00;96852.16;5351309;26;20401;-72
2024/04/13 12:28:43;;;;;;;;;;;;;;;22.74;100.00;96846.53;5351877;26;19930;-72
2024/04/13 12:31:11;;;;;;;;;;;;;;;22.88;100.00;96844.41;5354809;26;20370;-72
2024/04/13 12:33:38;;;;;;;;;;;;;;;22.77;100.00;96843.16;5346582;26;19936;-72
2024/04/13 12:36:06;;;;;;;;;;;;;;;22.64;100.00;96844.13;5354645;26;20282;-73
2024/04/13 12:38:34;;;;;;;;;;;;;;;22.30;100.00;96847.69;5349326;26;20466;-74
2024/04/13 12:41:03;;;;;;;;;;;;;;;22.20;100.00;96835.16;5353220;26;19930;-75
2024/04/13 12:43:31;;;;;;;;;;;;;;;22.48;100.00;96827.38;5350944;26;19929;-72
2024/04/13 12:45:58;;;;;;;;;;;;;;;22.52;100.00;96823.66;5349549;26;19930;-72